sensor_id;sensor_type;location;lat;lon;timestamp;P1;durP1;ratioP1;P2;durP2;ratioP2
76296;SDS011;65104;52.994;6.552;2023-05-06T00:01:32;7.57;;;5.05;;
76296;SDS011;65104;52.994;6.552;2023-05-06T00:03:57;10.00;;;6.22;;
76296;SDS011;65104;52.994;6.552;2023-05-06T00:06:23;6.65;;;5.45;;
76296;SDS011;65104;52.994;6.552;2023-05-06T00:08:48;9.13;;;5.95;;
76296;SDS011;65104;52.994;6.552;2023-05-06T00:11:13;8.95;;;5.65;;
76296;SDS011;65104;52.994;6.552;2023-05-06T00:13:39;7.45;;;5.30;;
76296;SDS011;65104;52.994;6.552;2023-05-06T00:16:05;8.55;;;5.05;;
76296;SDS011;65104;52.994;6.552;2023-05-06T00:18:30;8.85;;;6.22;;
76296;SDS011;65104;52.994;6.552;2023-05-06T00:20:56;9.65;;;5.57;;
76296;SDS011;65104;52.994;6.552;2023-05-06T00:23:21;9.38;;;5.72;;
76296;SDS011;65104;52.994;6.552;2023-05-06T00:25:46;8.57;;;5.50;;
76296;SDS011;65104;52.994;6.552;2023-05-06T00:28:12;8.38;;;4.68;;
76296;SDS011;65104;52.994;6.552;2023-05-06T00:30:37;8.50;;;5.40;;
76296;SDS011;65104;52.994;6.552;2023-05-06T00:33:03;9.18;;;5.70;;
76296;SDS011;65104;52.994;6.552;2023-05-06T00:35:28;10.73;;;5.50;;
76296;SDS011;65104;52.994;6.552;2023-05-06T00:37:55;8.50;;;5.72;;
76296;SDS011;65104;52.994;6.552;2023-05-06T00:40:22;8.02;;;5.80;;
76296;SDS011;65104;52.994;6.552;2023-05-06T00:42:47;9.43;;;5.90;;
76296;SDS011;65104;52.994;6.552;2023-05-06T00:45:12;10.27;;;6.38;;
76296;SDS011;65104;52.994;6.552;2023-05-06T00:47:38;9.68;;;5.78;;
76296;SDS011;65104;52.994;6.552;2023-05-06T00:50:04;10.85;;;6.43;;
76296;SDS011;65104;52.994;6.552;2023-05-06T00:52:30;7.80;;;5.43;;
76296;SDS011;65104;52.994;6.552;2023-05-06T00:54:56;10.23;;;5.70;;
76296;SDS011;65104;52.994;6.552;2023-05-06T00:57:21;10.98;;;6.50;;
76296;SDS011;65104;52.994;6.552;2023-05-06T00:59:47;11.05;;;6.53;;
76296;SDS011;65104;52.994;6.552;2023-05-06T01:02:12;13.43;;;6.57;;
76296;SDS011;65104;52.994;6.552;2023-05-06T01:04:38;12.55;;;7.20;;
76296;SDS011;65104;52.994;6.552;2023-05-06T01:09:56;10.32;;;6.45;;
76296;SDS011;65104;52.994;6.552;2023-05-06T01:12:32;11.80;;;7.15;;
76296;SDS011;65104;52.994;6.552;2023-05-06T01:17:37;10.90;;;7.18;;
76296;SDS011;65104;52.994;6.552;2023-05-06T01:20:07;10.43;;;6.60;;
76296;SDS011;65104;52.994;6.552;2023-05-06T01:22:36;10.43;;;6.95;;
76296;SDS011;65104;52.994;6.552;2023-05-06T01:25:02;11.18;;;7.13;;
76296;SDS011;65104;52.994;6.552;2023-05-06T01:27:27;11.57;;;6.88;;
76296;SDS011;65104;52.994;6.552;2023-05-06T01:29:53;9.98;;;5.93;;
76296;SDS011;65104;52.994;6.552;2023-05-06T01:37:46;9.80;;;5.75;;
76296;SDS011;65104;52.994;6.552;2023-05-06T01:40:26;8.98;;;5.70;;
76296;SDS011;65104;52.994;6.552;2023-05-06T01:42:54;12.30;;;7.07;;
76296;SDS011;65104;52.994;6.552;2023-05-06T01:45:20;12.48;;;6.88;;
76296;SDS011;65104;52.994;6.552;2023-05-06T01:47:50;14.93;;;7.32;;
76296;SDS011;65104;52.994;6.552;2023-05-06T01:50:16;9.98;;;6.55;;
76296;SDS011;65104;52.994;6.552;2023-05-06T01:52:42;9.57;;;6.07;;
76296;SDS011;65104;52.994;6.552;2023-05-06T01:55:07;13.60;;;6.18;;
76296;SDS011;65104;52.994;6.552;2023-05-06T01:57:33;12.02;;;6.85;;
76296;SDS011;65104;52.994;6.552;2023-05-06T01:59:58;11.88;;;6.97;;
76296;SDS011;65104;52.994;6.552;2023-05-06T02:02:23;11.63;;;6.25;;
76296;SDS011;65104;52.994;6.552;2023-05-06T02:04:51;10.13;;;6.53;;
76296;SDS011;65104;52.994;6.552;2023-05-06T02:07:17;10.45;;;7.13;;
76296;SDS011;65104;52.994;6.552;2023-05-06T02:09:42;11.55;;;6.97;;
76296;SDS011;65104;52.994;6.552;2023-05-06T02:12:07;10.55;;;6.60;;
76296;SDS011;65104;52.994;6.552;2023-05-06T02:14:33;10.20;;;6.80;;
76296;SDS011;65104;52.994;6.552;2023-05-06T02:17:01;11.48;;;7.05;;
76296;SDS011;65104;52.994;6.552;2023-05-06T02:19:28;11.25;;;7.05;;
76296;SDS011;65104;52.994;6.552;2023-05-06T02:21:54;12.93;;;7.03;;
76296;SDS011;65104;52.994;6.552;2023-05-06T02:24:19;10.60;;;6.80;;
76296;SDS011;65104;52.994;6.552;2023-05-06T02:26:45;11.80;;;7.07;;
76296;SDS011;65104;52.994;6.552;2023-05-06T02:29:10;12.88;;;7.30;;
76296;SDS011;65104;52.994;6.552;2023-05-06T02:31:35;9.45;;;6.75;;
76296;SDS011;65104;52.994;6.552;2023-05-06T02:34:01;12.57;;;7.05;;
76296;SDS011;65104;52.994;6.552;2023-05-06T02:36:26;10.65;;;6.82;;
76296;SDS011;65104;52.994;6.552;2023-05-06T02:38:51;8.52;;;6.20;;
76296;SDS011;65104;52.994;6.552;2023-05-06T02:41:17;12.75;;;7.13;;
76296;SDS011;65104;52.994;6.552;2023-05-06T02:43:42;10.80;;;7.10;;
76296;SDS011;65104;52.994;6.552;2023-05-06T02:46:07;11.35;;;7.13;;
76296;SDS011;65104;52.994;6.552;2023-05-06T02:48:33;11.57;;;7.18;;
76296;SDS011;65104;52.994;6.552;2023-05-06T02:50:59;11.52;;;6.78;;
76296;SDS011;65104;52.994;6.552;2023-05-06T02:53:26;10.90;;;7.35;;
76296;SDS011;65104;52.994;6.552;2023-05-06T02:55:51;11.55;;;7.47;;
76296;SDS011;65104;52.994;6.552;2023-05-06T02:58:16;10.52;;;7.70;;
76296;SDS011;65104;52.994;6.552;2023-05-06T03:00:42;9.75;;;6.10;;
76296;SDS011;65104;52.994;6.552;2023-05-06T03:03:07;11.35;;;7.13;;
76296;SDS011;65104;52.994;6.552;2023-05-06T03:05:33;11.35;;;7.00;;
76296;SDS011;65104;52.994;6.552;2023-05-06T03:07:59;8.77;;;6.25;;
76296;SDS011;65104;52.994;6.552;2023-05-06T03:10:24;10.05;;;6.90;;
76296;SDS011;65104;52.994;6.552;2023-05-06T03:12:49;11.15;;;7.50;;
76296;SDS011;65104;52.994;6.552;2023-05-06T03:15:15;9.07;;;6.13;;
76296;SDS011;65104;52.994;6.552;2023-05-06T03:17:40;10.65;;;6.53;;
76296;SDS011;65104;52.994;6.552;2023-05-06T03:20:06;11.40;;;6.47;;
76296;SDS011;65104;52.994;6.552;2023-05-06T03:22:32;10.23;;;6.57;;
76296;SDS011;65104;52.994;6.552;2023-05-06T03:24:58;8.98;;;6.00;;
76296;SDS011;65104;52.994;6.552;2023-05-06T03:27:23;13.63;;;7.45;;
76296;SDS011;65104;52.994;6.552;2023-05-06T03:29:48;12.75;;;6.97;;
76296;SDS011;65104;52.994;6.552;2023-05-06T03:32:14;10.07;;;6.55;;
76296;SDS011;65104;52.994;6.552;2023-05-06T03:34:39;13.57;;;7.10;;
76296;SDS011;65104;52.994;6.552;2023-05-06T03:37:05;11.38;;;6.82;;
76296;SDS011;65104;52.994;6.552;2023-05-06T03:39:30;12.43;;;7.80;;
76296;SDS011;65104;52.994;6.552;2023-05-06T03:41:56;13.85;;;7.47;;
76296;SDS011;65104;52.994;6.552;2023-05-06T03:44:21;12.07;;;7.25;;
76296;SDS011;65104;52.994;6.552;2023-05-06T03:46:46;10.77;;;6.78;;
76296;SDS011;65104;52.994;6.552;2023-05-06T03:49:12;13.10;;;7.40;;
76296;SDS011;65104;52.994;6.552;2023-05-06T03:51:37;12.27;;;7.05;;
76296;SDS011;65104;52.994;6.552;2023-05-06T03:54:03;12.93;;;7.10;;
76296;SDS011;65104;52.994;6.552;2023-05-06T03:56:28;11.82;;;7.45;;
76296;SDS011;65104;52.994;6.552;2023-05-06T03:58:54;11.87;;;7.23;;
76296;SDS011;65104;52.994;6.552;2023-05-06T04:01:19;14.07;;;7.05;;
76296;SDS011;65104;52.994;6.552;2023-05-06T04:03:45;14.10;;;6.53;;
76296;SDS011;65104;52.994;6.552;2023-05-06T04:06:11;12.52;;;7.63;;
76296;SDS011;65104;52.994;6.552;2023-05-06T04:08:36;13.55;;;8.68;;
76296;SDS011;65104;52.994;6.552;2023-05-06T04:11:05;15.05;;;8.00;;
76296;SDS011;65104;52.994;6.552;2023-05-06T04:13:31;14.10;;;8.48;;
76296;SDS011;65104;52.994;6.552;2023-05-06T04:15:57;17.38;;;7.95;;
76296;SDS011;65104;52.994;6.552;2023-05-06T04:18:22;12.95;;;7.60;;
76296;SDS011;65104;52.994;6.552;2023-05-06T04:20:48;12.82;;;7.93;;
76296;SDS011;65104;52.994;6.552;2023-05-06T04:23:14;15.10;;;8.65;;
76296;SDS011;65104;52.994;6.552;2023-05-06T04:25:40;12.88;;;7.78;;
76296;SDS011;65104;52.994;6.552;2023-05-06T04:28:07;14.57;;;8.40;;
76296;SDS011;65104;52.994;6.552;2023-05-06T04:30:33;14.85;;;9.38;;
76296;SDS011;65104;52.994;6.552;2023-05-06T04:32:58;14.65;;;8.93;;
76296;SDS011;65104;52.994;6.552;2023-05-06T04:35:24;15.63;;;9.38;;
76296;SDS011;65104;52.994;6.552;2023-05-06T04:37:49;16.00;;;9.18;;
76296;SDS011;65104;52.994;6.552;2023-05-06T04:40:14;13.40;;;7.85;;
76296;SDS011;65104;52.994;6.552;2023-05-06T04:42:40;12.05;;;7.57;;
76296;SDS011;65104;52.994;6.552;2023-05-06T04:45:06;15.63;;;7.68;;
76296;SDS011;65104;52.994;6.552;2023-05-06T04:47:32;14.70;;;8.55;;
76296;SDS011;65104;52.994;6.552;2023-05-06T04:49:58;15.48;;;8.52;;
76296;SDS011;65104;52.994;6.552;2023-05-06T04:52:23;15.45;;;8.13;;
76296;SDS011;65104;52.994;6.552;2023-05-06T04:54:48;13.02;;;8.38;;
76296;SDS011;65104;52.994;6.552;2023-05-06T04:57:14;11.88;;;8.10;;
76296;SDS011;65104;52.994;6.552;2023-05-06T04:59:39;14.52;;;7.72;;
76296;SDS011;65104;52.994;6.552;2023-05-06T05:02:05;13.40;;;8.40;;
76296;SDS011;65104;52.994;6.552;2023-05-06T05:04:31;12.55;;;7.72;;
76296;SDS011;65104;52.994;6.552;2023-05-06T05:06:56;13.82;;;8.30;;
76296;SDS011;65104;52.994;6.552;2023-05-06T05:09:22;14.25;;;8.75;;
76296;SDS011;65104;52.994;6.552;2023-05-06T05:11:47;15.30;;;9.68;;
76296;SDS011;65104;52.994;6.552;2023-05-06T05:14:13;13.20;;;9.27;;
76296;SDS011;65104;52.994;6.552;2023-05-06T05:16:38;14.27;;;9.70;;
76296;SDS011;65104;52.994;6.552;2023-05-06T05:19:04;13.18;;;7.75;;
76296;SDS011;65104;52.994;6.552;2023-05-06T05:21:30;14.35;;;9.55;;
76296;SDS011;65104;52.994;6.552;2023-05-06T05:23:55;15.18;;;8.95;;
76296;SDS011;65104;52.994;6.552;2023-05-06T05:26:21;13.35;;;8.68;;
76296;SDS011;65104;52.994;6.552;2023-05-06T05:28:46;16.38;;;9.25;;
76296;SDS011;65104;52.994;6.552;2023-05-06T05:31:11;13.88;;;8.55;;
76296;SDS011;65104;52.994;6.552;2023-05-06T05:33:37;16.70;;;8.85;;
76296;SDS011;65104;52.994;6.552;2023-05-06T05:36:02;15.23;;;8.98;;
76296;SDS011;65104;52.994;6.552;2023-05-06T05:38:28;15.00;;;9.00;;
76296;SDS011;65104;52.994;6.552;2023-05-06T05:40:54;17.90;;;9.68;;
76296;SDS011;65104;52.994;6.552;2023-05-06T05:43:19;13.60;;;8.73;;
76296;SDS011;65104;52.994;6.552;2023-05-06T05:45:46;13.95;;;9.60;;
76296;SDS011;65104;52.994;6.552;2023-05-06T05:48:11;13.50;;;8.27;;
76296;SDS011;65104;52.994;6.552;2023-05-06T05:50:36;16.63;;;9.27;;
76296;SDS011;65104;52.994;6.552;2023-05-06T05:53:02;14.10;;;9.00;;
76296;SDS011;65104;52.994;6.552;2023-05-06T05:55:27;14.73;;;8.80;;
76296;SDS011;65104;52.994;6.552;2023-05-06T05:57:53;14.93;;;8.63;;
76296;SDS011;65104;52.994;6.552;2023-05-06T06:00:19;15.63;;;8.95;;
76296;SDS011;65104;52.994;6.552;2023-05-06T06:02:45;14.93;;;8.60;;
76296;SDS011;65104;52.994;6.552;2023-05-06T06:05:10;14.55;;;9.32;;
76296;SDS011;65104;52.994;6.552;2023-05-06T06:07:35;14.93;;;9.30;;
76296;SDS011;65104;52.994;6.552;2023-05-06T06:10:01;14.43;;;8.60;;
76296;SDS011;65104;52.994;6.552;2023-05-06T06:12:27;14.20;;;8.77;;
76296;SDS011;65104;52.994;6.552;2023-05-06T06:14:52;15.35;;;8.63;;
76296;SDS011;65104;52.994;6.552;2023-05-06T06:17:17;15.27;;;9.32;;
76296;SDS011;65104;52.994;6.552;2023-05-06T06:19:46;14.57;;;8.90;;
76296;SDS011;65104;52.994;6.552;2023-05-06T06:22:11;16.15;;;9.13;;
76296;SDS011;65104;52.994;6.552;2023-05-06T06:24:37;16.55;;;9.32;;
76296;SDS011;65104;52.994;6.552;2023-05-06T06:27:02;12.95;;;8.13;;
76296;SDS011;65104;52.994;6.552;2023-05-06T06:29:28;14.23;;;9.02;;
76296;SDS011;65104;52.994;6.552;2023-05-06T06:31:53;12.40;;;9.07;;
76296;SDS011;65104;52.994;6.552;2023-05-06T06:34:22;13.07;;;8.38;;
76296;SDS011;65104;52.994;6.552;2023-05-06T06:36:48;13.23;;;8.13;;
76296;SDS011;65104;52.994;6.552;2023-05-06T06:39:13;11.02;;;7.35;;
76296;SDS011;65104;52.994;6.552;2023-05-06T06:41:38;10.73;;;7.72;;
76296;SDS011;65104;52.994;6.552;2023-05-06T06:44:04;14.10;;;8.05;;
76296;SDS011;65104;52.994;6.552;2023-05-06T06:46:30;12.52;;;7.88;;
76296;SDS011;65104;52.994;6.552;2023-05-06T06:48:55;12.20;;;7.53;;
76296;SDS011;65104;52.994;6.552;2023-05-06T06:51:20;11.90;;;7.20;;
76296;SDS011;65104;52.994;6.552;2023-05-06T06:53:46;12.73;;;7.93;;
76296;SDS011;65104;52.994;6.552;2023-05-06T06:56:13;10.82;;;7.07;;
76296;SDS011;65104;52.994;6.552;2023-05-06T06:58:38;12.13;;;7.93;;
76296;SDS011;65104;52.994;6.552;2023-05-06T07:01:04;12.43;;;7.68;;
76296;SDS011;65104;52.994;6.552;2023-05-06T07:03:29;15.40;;;7.75;;
76296;SDS011;65104;52.994;6.552;2023-05-06T07:05:55;11.48;;;7.18;;
76296;SDS011;65104;52.994;6.552;2023-05-06T07:08:20;12.00;;;7.85;;
76296;SDS011;65104;52.994;6.552;2023-05-06T07:10:46;12.40;;;8.30;;
76296;SDS011;65104;52.994;6.552;2023-05-06T07:13:12;9.18;;;6.53;;
76296;SDS011;65104;52.994;6.552;2023-05-06T07:15:37;10.43;;;6.57;;
76296;SDS011;65104;52.994;6.552;2023-05-06T07:18:03;9.77;;;6.57;;
76296;SDS011;65104;52.994;6.552;2023-05-06T07:20:28;9.77;;;7.05;;
76296;SDS011;65104;52.994;6.552;2023-05-06T07:22:54;11.95;;;7.15;;
76296;SDS011;65104;52.994;6.552;2023-05-06T07:25:19;11.70;;;6.90;;
76296;SDS011;65104;52.994;6.552;2023-05-06T07:27:44;11.63;;;7.65;;
76296;SDS011;65104;52.994;6.552;2023-05-06T07:30:10;10.20;;;7.32;;
76296;SDS011;65104;52.994;6.552;2023-05-06T07:32:35;9.68;;;7.70;;
76296;SDS011;65104;52.994;6.552;2023-05-06T07:35:01;10.00;;;6.38;;
76296;SDS011;65104;52.994;6.552;2023-05-06T07:37:27;9.57;;;6.38;;
76296;SDS011;65104;52.994;6.552;2023-05-06T07:39:52;10.82;;;7.10;;
76296;SDS011;65104;52.994;6.552;2023-05-06T07:42:17;11.57;;;6.72;;
76296;SDS011;65104;52.994;6.552;2023-05-06T07:44:43;9.00;;;6.35;;
76296;SDS011;65104;52.994;6.552;2023-05-06T07:47:08;9.43;;;6.40;;
76296;SDS011;65104;52.994;6.552;2023-05-06T07:49:33;9.13;;;6.20;;
76296;SDS011;65104;52.994;6.552;2023-05-06T07:51:59;7.72;;;5.28;;
76296;SDS011;65104;52.994;6.552;2023-05-06T07:54:24;6.03;;;4.30;;
76296;SDS011;65104;52.994;6.552;2023-05-06T07:56:50;5.97;;;4.03;;
76296;SDS011;65104;52.994;6.552;2023-05-06T07:59:15;6.10;;;4.13;;
76296;SDS011;65104;52.994;6.552;2023-05-06T08:01:41;5.90;;;3.75;;
76296;SDS011;65104;52.994;6.552;2023-05-06T08:04:06;6.68;;;3.78;;
76296;SDS011;65104;52.994;6.552;2023-05-06T08:06:32;8.65;;;4.50;;
76296;SDS011;65104;52.994;6.552;2023-05-06T08:08:57;8.63;;;4.18;;
76296;SDS011;65104;52.994;6.552;2023-05-06T08:11:23;6.25;;;4.07;;
76296;SDS011;65104;52.994;6.552;2023-05-06T08:13:48;6.15;;;4.18;;
76296;SDS011;65104;52.994;6.552;2023-05-06T08:16:14;6.28;;;4.22;;
76296;SDS011;65104;52.994;6.552;2023-05-06T08:18:39;6.85;;;3.97;;
76296;SDS011;65104;52.994;6.552;2023-05-06T08:21:05;6.22;;;3.97;;
76296;SDS011;65104;52.994;6.552;2023-05-06T08:23:30;7.82;;;4.50;;
76296;SDS011;65104;52.994;6.552;2023-05-06T08:25:56;10.55;;;5.53;;
76296;SDS011;65104;52.994;6.552;2023-05-06T08:28:23;7.90;;;4.90;;
76296;SDS011;65104;52.994;6.552;2023-05-06T08:30:48;7.22;;;4.45;;
76296;SDS011;65104;52.994;6.552;2023-05-06T08:33:16;11.23;;;5.38;;
76296;SDS011;65104;52.994;6.552;2023-05-06T08:35:41;9.00;;;5.18;;
76296;SDS011;65104;52.994;6.552;2023-05-06T08:38:07;9.65;;;4.88;;
76296;SDS011;65104;52.994;6.552;2023-05-06T08:40:32;9.98;;;5.70;;
76296;SDS011;65104;52.994;6.552;2023-05-06T08:42:58;11.90;;;5.85;;
76296;SDS011;65104;52.994;6.552;2023-05-06T08:45:25;8.02;;;4.65;;
76296;SDS011;65104;52.994;6.552;2023-05-06T08:47:51;9.13;;;5.43;;
76296;SDS011;65104;52.994;6.552;2023-05-06T08:50:16;8.25;;;4.97;;
76296;SDS011;65104;52.994;6.552;2023-05-06T08:52:42;9.35;;;5.28;;
76296;SDS011;65104;52.994;6.552;2023-05-06T08:55:07;9.32;;;5.13;;
76296;SDS011;65104;52.994;6.552;2023-05-06T08:57:33;8.77;;;6.20;;
76296;SDS011;65104;52.994;6.552;2023-05-06T08:59:59;8.35;;;5.03;;
76296;SDS011;65104;52.994;6.552;2023-05-06T09:02:25;9.13;;;5.15;;
76296;SDS011;65104;52.994;6.552;2023-05-06T09:04:51;9.05;;;4.53;;
76296;SDS011;65104;52.994;6.552;2023-05-06T09:09:47;5.85;;;3.20;;
76296;SDS011;65104;52.994;6.552;2023-05-06T09:12:13;8.43;;;4.38;;
76296;SDS011;65104;52.994;6.552;2023-05-06T09:14:39;7.93;;;4.25;;
76296;SDS011;65104;52.994;6.552;2023-05-06T09:17:14;6.72;;;3.83;;
76296;SDS011;65104;52.994;6.552;2023-05-06T09:19:47;5.88;;;3.75;;
76296;SDS011;65104;52.994;6.552;2023-05-06T09:22:13;7.53;;;3.83;;
76296;SDS011;65104;52.994;6.552;2023-05-06T09:24:38;6.38;;;2.45;;
76296;SDS011;65104;52.994;6.552;2023-05-06T09:27:04;5.25;;;3.08;;
76296;SDS011;65104;52.994;6.552;2023-05-06T09:29:29;6.38;;;3.85;;
76296;SDS011;65104;52.994;6.552;2023-05-06T09:31:55;6.38;;;3.60;;
76296;SDS011;65104;52.994;6.552;2023-05-06T09:34:20;6.25;;;4.00;;
76296;SDS011;65104;52.994;6.552;2023-05-06T09:36:46;5.28;;;3.22;;
76296;SDS011;65104;52.994;6.552;2023-05-06T09:39:11;5.32;;;3.20;;
76296;SDS011;65104;52.994;6.552;2023-05-06T09:41:37;4.28;;;2.88;;
76296;SDS011;65104;52.994;6.552;2023-05-06T09:44:02;4.95;;;3.17;;
76296;SDS011;65104;52.994;6.552;2023-05-06T09:46:28;6.75;;;3.60;;
76296;SDS011;65104;52.994;6.552;2023-05-06T09:48:55;5.60;;;3.58;;
76296;SDS011;65104;52.994;6.552;2023-05-06T09:51:21;5.45;;;3.60;;
76296;SDS011;65104;52.994;6.552;2023-05-06T09:53:47;5.35;;;3.83;;
76296;SDS011;65104;52.994;6.552;2023-05-06T09:56:12;6.90;;;3.85;;
76296;SDS011;65104;52.994;6.552;2023-05-06T09:58:39;7.90;;;4.75;;
76296;SDS011;65104;52.994;6.552;2023-05-06T10:01:06;6.95;;;4.20;;
76296;SDS011;65104;52.994;6.552;2023-05-06T10:03:33;6.28;;;3.42;;
76296;SDS011;65104;52.994;6.552;2023-05-06T10:06:00;7.32;;;4.30;;
76296;SDS011;65104;52.994;6.552;2023-05-06T10:08:26;5.63;;;3.67;;
76296;SDS011;65104;52.994;6.552;2023-05-06T10:10:52;7.00;;;3.95;;
76296;SDS011;65104;52.994;6.552;2023-05-06T10:13:19;6.57;;;3.63;;
76296;SDS011;65104;52.994;6.552;2023-05-06T10:15:46;6.72;;;3.55;;
76296;SDS011;65104;52.994;6.552;2023-05-06T10:18:15;7.10;;;4.35;;
76296;SDS011;65104;52.994;6.552;2023-05-06T10:20:43;7.45;;;4.53;;
76296;SDS011;65104;52.994;6.552;2023-05-06T10:23:23;6.85;;;4.32;;
76296;SDS011;65104;52.994;6.552;2023-05-06T10:26:05;12.20;;;5.05;;
76296;SDS011;65104;52.994;6.552;2023-05-06T10:28:43;7.90;;;4.90;;
76296;SDS011;65104;52.994;6.552;2023-05-06T10:31:13;8.73;;;4.57;;
76296;SDS011;65104;52.994;6.552;2023-05-06T10:33:40;7.70;;;4.93;;
76296;SDS011;65104;52.994;6.552;2023-05-06T10:36:12;9.10;;;5.10;;
76296;SDS011;65104;52.994;6.552;2023-05-06T10:38:43;6.32;;;4.20;;
76296;SDS011;65104;52.994;6.552;2023-05-06T10:41:11;8.63;;;4.68;;
76296;SDS011;65104;52.994;6.552;2023-05-06T10:43:38;9.75;;;5.25;;
76296;SDS011;65104;52.994;6.552;2023-05-06T10:48:33;10.48;;;6.28;;
76296;SDS011;65104;52.994;6.552;2023-05-06T10:51:42;9.98;;;6.25;;
76296;SDS011;65104;52.994;6.552;2023-05-06T10:53:59;10.98;;;7.13;;
76296;SDS011;65104;52.994;6.552;2023-05-06T10:59:23;10.82;;;7.43;;
76296;SDS011;65104;52.994;6.552;2023-05-06T11:04:28;13.77;;;8.05;;
76296;SDS011;65104;52.994;6.552;2023-05-06T11:07:05;10.55;;;7.90;;
76296;SDS011;65104;52.994;6.552;2023-05-06T11:09:55;12.30;;;6.90;;
76296;SDS011;65104;52.994;6.552;2023-05-06T11:12:31;12.55;;;8.65;;
76296;SDS011;65104;52.994;6.552;2023-05-06T11:15:18;12.00;;;7.28;;
76296;SDS011;65104;52.994;6.552;2023-05-06T11:21:34;13.10;;;7.68;;
76296;SDS011;65104;52.994;6.552;2023-05-06T11:26:06;11.23;;;7.13;;
76296;SDS011;65104;52.994;6.552;2023-05-06T11:28:32;12.80;;;7.38;;
76296;SDS011;65104;52.994;6.552;2023-05-06T11:30:59;11.90;;;7.03;;
76296;SDS011;65104;52.994;6.552;2023-05-06T11:33:26;10.93;;;7.15;;
76296;SDS011;65104;52.994;6.552;2023-05-06T11:35:55;11.50;;;7.90;;
76296;SDS011;65104;52.994;6.552;2023-05-06T11:38:21;9.63;;;6.50;;
76296;SDS011;65104;52.994;6.552;2023-05-06T11:40:47;9.27;;;5.32;;
76296;SDS011;65104;52.994;6.552;2023-05-06T11:43:14;10.82;;;5.93;;
76296;SDS011;65104;52.994;6.552;2023-05-06T11:45:44;9.15;;;5.35;;
76296;SDS011;65104;52.994;6.552;2023-05-06T11:48:11;7.20;;;5.30;;
76296;SDS011;65104;52.994;6.552;2023-05-06T11:50:37;8.40;;;5.53;;
76296;SDS011;65104;52.994;6.552;2023-05-06T11:53:02;9.80;;;5.57;;
76296;SDS011;65104;52.994;6.552;2023-05-06T11:55:28;8.23;;;4.97;;
76296;SDS011;65104;52.994;6.552;2023-05-06T11:57:53;6.30;;;4.13;;
76296;SDS011;65104;52.994;6.552;2023-05-06T12:00:19;8.10;;;4.97;;
76296;SDS011;65104;52.994;6.552;2023-05-06T12:02:44;7.55;;;5.05;;
76296;SDS011;65104;52.994;6.552;2023-05-06T12:05:10;7.65;;;4.68;;
76296;SDS011;65104;52.994;6.552;2023-05-06T12:07:36;5.97;;;4.00;;
76296;SDS011;65104;52.994;6.552;2023-05-06T12:10:02;5.57;;;4.20;;
76296;SDS011;65104;52.994;6.552;2023-05-06T12:12:28;6.78;;;4.22;;
76296;SDS011;65104;52.994;6.552;2023-05-06T12:14:56;5.20;;;3.53;;
76296;SDS011;65104;52.994;6.552;2023-05-06T12:17:22;6.20;;;4.68;;
76296;SDS011;65104;52.994;6.552;2023-05-06T12:19:48;5.18;;;3.08;;
76296;SDS011;65104;52.994;6.552;2023-05-06T12:24:47;5.07;;;3.85;;
76296;SDS011;65104;52.994;6.552;2023-05-06T12:27:12;5.22;;;3.42;;
76296;SDS011;65104;52.994;6.552;2023-05-06T12:29:38;5.30;;;3.33;;
76296;SDS011;65104;52.994;6.552;2023-05-06T12:32:10;7.85;;;3.63;;
76296;SDS011;65104;52.994;6.552;2023-05-06T12:34:36;6.00;;;3.80;;
76296;SDS011;65104;52.994;6.552;2023-05-06T12:37:03;5.25;;;3.67;;
76296;SDS011;65104;52.994;6.552;2023-05-06T12:39:35;7.32;;;4.30;;
76296;SDS011;65104;52.994;6.552;2023-05-06T12:42:01;6.30;;;3.40;;
76296;SDS011;65104;52.994;6.552;2023-05-06T12:44:31;6.75;;;4.13;;
76296;SDS011;65104;52.994;6.552;2023-05-06T12:46:56;6.18;;;4.30;;
76296;SDS011;65104;52.994;6.552;2023-05-06T12:49:23;6.45;;;4.20;;
76296;SDS011;65104;52.994;6.552;2023-05-06T12:52:04;6.55;;;4.43;;
76296;SDS011;65104;52.994;6.552;2023-05-06T12:54:31;6.07;;;4.20;;
76296;SDS011;65104;52.994;6.552;2023-05-06T12:56:56;6.07;;;3.70;;
76296;SDS011;65104;52.994;6.552;2023-05-06T12:59:23;5.13;;;3.53;;
76296;SDS011;65104;52.994;6.552;2023-05-06T13:01:48;5.13;;;3.00;;
76296;SDS011;65104;52.994;6.552;2023-05-06T13:04:14;4.25;;;2.58;;
76296;SDS011;65104;52.994;6.552;2023-05-06T13:06:39;7.00;;;3.78;;
76296;SDS011;65104;52.994;6.552;2023-05-06T13:09:05;8.35;;;5.32;;
76296;SDS011;65104;52.994;6.552;2023-05-06T13:11:30;7.97;;;5.88;;
76296;SDS011;65104;52.994;6.552;2023-05-06T13:13:56;8.90;;;5.88;;
76296;SDS011;65104;52.994;6.552;2023-05-06T13:16:21;6.05;;;5.45;;
76296;SDS011;65104;52.994;6.552;2023-05-06T13:18:46;9.77;;;6.00;;
76296;SDS011;65104;52.994;6.552;2023-05-06T13:21:12;9.98;;;6.30;;
76296;SDS011;65104;52.994;6.552;2023-05-06T13:23:38;8.40;;;5.28;;
76296;SDS011;65104;52.994;6.552;2023-05-06T13:26:10;7.50;;;5.50;;
76296;SDS011;65104;52.994;6.552;2023-05-06T13:28:36;6.50;;;4.80;;
76296;SDS011;65104;52.994;6.552;2023-05-06T13:31:03;6.57;;;4.22;;
76296;SDS011;65104;52.994;6.552;2023-05-06T13:33:29;5.22;;;4.32;;
76296;SDS011;65104;52.994;6.552;2023-05-06T13:35:54;4.55;;;3.97;;
76296;SDS011;65104;52.994;6.552;2023-05-06T13:38:19;4.13;;;3.72;;
76296;SDS011;65104;52.994;6.552;2023-05-06T13:40:54;4.45;;;4.05;;
76296;SDS011;65104;52.994;6.552;2023-05-06T13:43:20;6.47;;;4.57;;
76296;SDS011;65104;52.994;6.552;2023-05-06T13:45:48;5.82;;;4.57;;
76296;SDS011;65104;52.994;6.552;2023-05-06T13:48:14;5.88;;;4.20;;
76296;SDS011;65104;52.994;6.552;2023-05-06T13:50:40;7.15;;;4.90;;
76296;SDS011;65104;52.994;6.552;2023-05-06T13:53:06;5.32;;;3.97;;
76296;SDS011;65104;52.994;6.552;2023-05-06T13:55:31;5.78;;;4.40;;
76296;SDS011;65104;52.994;6.552;2023-05-06T13:57:57;6.28;;;4.57;;
76296;SDS011;65104;52.994;6.552;2023-05-06T14:00:22;6.00;;;4.63;;
76296;SDS011;65104;52.994;6.552;2023-05-06T14:02:47;7.72;;;5.20;;
76296;SDS011;65104;52.994;6.552;2023-05-06T14:05:13;6.00;;;5.00;;
76296;SDS011;65104;52.994;6.552;2023-05-06T14:07:39;7.35;;;4.55;;
76296;SDS011;65104;52.994;6.552;2023-05-06T14:10:05;6.80;;;4.60;;
76296;SDS011;65104;52.994;6.552;2023-05-06T14:12:31;6.53;;;5.55;;
76296;SDS011;65104;52.994;6.552;2023-05-06T14:14:57;6.03;;;4.82;;
76296;SDS011;65104;52.994;6.552;2023-05-06T14:17:22;7.03;;;4.82;;
76296;SDS011;65104;52.994;6.552;2023-05-06T14:19:47;4.57;;;3.75;;
76296;SDS011;65104;52.994;6.552;2023-05-06T14:22:13;6.90;;;4.82;;
76296;SDS011;65104;52.994;6.552;2023-05-06T14:24:38;5.90;;;4.22;;
76296;SDS011;65104;52.994;6.552;2023-05-06T14:27:03;5.28;;;3.90;;
76296;SDS011;65104;52.994;6.552;2023-05-06T14:29:29;5.93;;;4.22;;
76296;SDS011;65104;52.994;6.552;2023-05-06T14:31:54;5.28;;;3.83;;
76296;SDS011;65104;52.994;6.552;2023-05-06T14:34:20;5.18;;;4.30;;
76296;SDS011;65104;52.994;6.552;2023-05-06T14:36:45;5.10;;;3.88;;
76296;SDS011;65104;52.994;6.552;2023-05-06T14:39:11;6.40;;;4.25;;
76296;SDS011;65104;52.994;6.552;2023-05-06T14:41:38;6.72;;;3.75;;
76296;SDS011;65104;52.994;6.552;2023-05-06T14:44:03;3.88;;;2.72;;
76296;SDS011;65104;52.994;6.552;2023-05-06T14:46:29;3.85;;;3.30;;
76296;SDS011;65104;52.994;6.552;2023-05-06T14:48:54;5.68;;;3.63;;
76296;SDS011;65104;52.994;6.552;2023-05-06T14:51:20;4.65;;;4.25;;
76296;SDS011;65104;52.994;6.552;2023-05-06T14:53:45;4.70;;;3.85;;
76296;SDS011;65104;52.994;6.552;2023-05-06T14:56:11;8.00;;;4.82;;
76296;SDS011;65104;52.994;6.552;2023-05-06T14:58:38;6.22;;;3.92;;
76296;SDS011;65104;52.994;6.552;2023-05-06T15:01:04;6.80;;;5.45;;
76296;SDS011;65104;52.994;6.552;2023-05-06T15:03:29;7.05;;;5.00;;
76296;SDS011;65104;52.994;6.552;2023-05-06T15:05:55;9.07;;;6.28;;